Terminal Aerodrome Forecast
Issued by NWS

Home | Current Version | Previous Version | Text Only | Print | Product List | Glossary On
Versions: 1 2 3 4 5 6 7 8 9 10 11 12 13 14 15 16 17 18 19 20 21 22 23 24 25
127
FTUS42 KFFC 220536
TAFRYY
TAF
KRYY 220536Z 2206/2306 VRB03KT 4SM BR BKN012 BKN025
     FM220700 VRB03KT 5SM -RA BR BKN008 BKN015
      TEMPO 2207/2210 2SM TSRA OVC005CB
     FM221000 17006KT 4SM TSRA BR BKN005CB
     FM221500 20010KT P6SM VCSH BKN015 PROB30 2219/2223 VRB15G30KT
      3SM TSRA BKN009CB
     FM230000 23012KT 5SM -RA BR BKN025 BKN150
      AMD NOT SKED TIL 221200=

USA.gov is the U.S. government's official web portal to all federal, state and local government web resources and services.